Terminal Aerodrome Forecast
Issued by NWS

Home | Current Version | Previous Version | Graphics & Text | Print | Product List | Glossary On
Versions: 1 2 3 4 5 6 7 8 9 10 11 12 13 14 15 16 17 18 19
000
FTUS43 KBIS 211722
TAFDIK
TAF
KDIK 211722Z 2118/2218 11013KT P6SM SCT012 BKN070
     FM220000 14016G22KT P6SM SCT035 OVC070
     FM220700 14019G28KT P6SM SCT025 BKN035 OVC090
     FM220900 14022G30KT P6SM OVC025
     FM221200 15022G30KT P6SM OVC015=

USA.gov is the U.S. government's official web portal to all federal, state and local government web resources and services.